Terminal Aerodrome Forecast
Issued by NWS

Home | Current Version | Previous Version | Text Only | Print | Product List | Glossary On
Versions: 1 2 3 4 5 6 7 8 9 10 11 12
000
FTUS41 KPHI 282325
TAFMIV
TAF
KMIV 282325Z 2900/2924 16007KT P6SM SCT250
     FM290200 VRB02KT P6SM SCT250
     FM290600 00000KT 5SM BR SCT250
      TEMPO 2908/2912 2SM BR SCT008
     FM291300 17004KT P6SM SCT250
     FM291600 17008KT P6SM SCT050 BKN200
     FM292000 14006KT P6SM VCSH FEW030 BKN050=

USA.gov is the U.S. government's official web portal to all federal, state and local government web resources and services.